VIR85 EGCC-KLAS
Flight info
| Callsign | VIR85 |
|---|---|
| Flight time | N/A |
| Altitude | 32000 |
| Route | N0489F320 EKLAD1Y EKLAD Y53 WAL L10 PENIL M144 BAGSO DCT REVNU DCT PIKIL/M085F320 DCT 5730N02000W/M085F380 DCT 5930N03000W DCT 61N040W DCT 62N050W DCT LIBOR DCT FEDDY/N0490F380 DCT DUGNO/N0494F400 DCT 57N090W DCT 55N095W DCT YDN DCT ISN DCT BPI DCT DTA DCT MLF/N0423F320 DCT STEWW CHOWW4 |
| Aircraft | A35K/H-SBDE3GHIJ1J2J3J5M1P2RVWXYZ/LB2D1G1 |
Departure
| Time | N/A |
|---|---|
| Airport | Manchester Airport (EGCC) |
Arrival
| Time | 2026-05-03 23:49 |
|---|---|
| Airport | Harry Reid International Airport (KLAS) |
| Time | Latitude | Longitude | Altitude | Speed | Heading |
|---|---|---|---|---|---|
| 2026-05-03 20:15 | 57.03971 | -89.91126 | 39636 ft | 504 kts | 230° |
| 2026-05-03 20:15 | 57.00318 | -89.99443 | 39635 ft | 503 kts | 234° |
| 2026-05-03 20:16 | 56.96357 | -90.10007 | 39633 ft | 502 kts | 236° |
| 2026-05-03 20:16 | 56.92492 | -90.20661 | 39630 ft | 502 kts | 237° |
| 2026-05-03 20:17 | 56.88636 | -90.31304 | 39628 ft | 502 kts | 236° |
| 2026-05-03 20:17 | 56.84759 | -90.41930 | 39628 ft | 502 kts | 236° |
| 2026-05-03 20:18 | 56.80875 | -90.52506 | 39619 ft | 502 kts | 236° |
| 2026-05-03 20:18 | 56.76975 | -90.63071 | 39620 ft | 502 kts | 237° |
| 2026-05-03 20:19 | 56.73072 | -90.73602 | 39600 ft | 502 kts | 236° |
| 2026-05-03 20:19 | 56.69156 | -90.84122 | 39600 ft | 502 kts | 236° |
| 2026-05-03 20:20 | 56.65233 | -90.94615 | 39598 ft | 502 kts | 236° |
| 2026-05-03 20:20 | 56.61302 | -91.05085 | 39592 ft | 502 kts | 236° |
| 2026-05-03 20:21 | 56.57361 | -91.15535 | 39590 ft | 502 kts | 236° |
| 2026-05-03 20:21 | 56.53412 | -91.25959 | 39585 ft | 501 kts | 236° |
| 2026-05-03 20:22 | 56.49461 | -91.36348 | 39578 ft | 501 kts | 237° |
| 2026-05-03 20:22 | 56.45502 | -91.46713 | 39575 ft | 501 kts | 236° |
| 2026-05-03 20:23 | 56.41533 | -91.57057 | 39579 ft | 501 kts | 236° |
| 2026-05-03 20:23 | 56.37556 | -91.67383 | 39570 ft | 501 kts | 236° |
| 2026-05-03 20:24 | 56.33571 | -91.77683 | 39569 ft | 501 kts | 236° |
| 2026-05-03 20:24 | 56.29575 | -91.87967 | 39569 ft | 501 kts | 236° |
| 2026-05-03 20:25 | 56.25575 | -91.98223 | 39561 ft | 500 kts | 236° |
| 2026-05-03 20:25 | 56.21566 | -92.08453 | 39562 ft | 500 kts | 236° |
| 2026-05-03 20:26 | 56.17551 | -92.18657 | 39561 ft | 500 kts | 236° |
| 2026-05-03 20:26 | 56.13529 | -92.28837 | 39554 ft | 500 kts | 236° |
| 2026-05-03 20:27 | 56.09497 | -92.39000 | 39561 ft | 500 kts | 236° |
| 2026-05-03 20:27 | 56.05458 | -92.49137 | 39556 ft | 500 kts | 235° |
| 2026-05-03 20:28 | 56.01408 | -92.59259 | 39559 ft | 500 kts | 235° |
| 2026-05-03 20:28 | 55.97354 | -92.69352 | 39559 ft | 500 kts | 235° |
| 2026-05-03 20:29 | 55.93287 | -92.79433 | 39562 ft | 500 kts | 235° |
| 2026-05-03 20:29 | 55.89215 | -92.89486 | 39561 ft | 500 kts | 235° |
| 2026-05-03 20:30 | 55.85136 | -92.99515 | 39560 ft | 500 kts | 235° |
| 2026-05-03 20:30 | 55.81048 | -93.09526 | 39559 ft | 500 kts | 235° |
| 2026-05-03 20:31 | 55.76952 | -93.19515 | 39559 ft | 500 kts | 235° |
| 2026-05-03 20:31 | 55.72848 | -93.29483 | 39557 ft | 500 kts | 235° |
| 2026-05-03 20:32 | 55.68742 | -93.39414 | 39554 ft | 499 kts | 235° |
| 2026-05-03 20:32 | 55.64631 | -93.49318 | 39558 ft | 499 kts | 235° |
| 2026-05-03 20:33 | 55.60514 | -93.59197 | 39551 ft | 499 kts | 235° |
| 2026-05-03 20:33 | 55.56388 | -93.69057 | 39552 ft | 499 kts | 234° |
| 2026-05-03 20:34 | 55.52254 | -93.78899 | 39557 ft | 499 kts | 234° |
| 2026-05-03 20:34 | 55.48112 | -93.88718 | 39549 ft | 499 kts | 234° |
| 2026-05-03 20:35 | 55.43965 | -93.98510 | 39552 ft | 498 kts | 234° |
| 2026-05-03 20:35 | 55.39819 | -94.08261 | 39554 ft | 497 kts | 234° |
| 2026-05-03 20:36 | 55.35665 | -94.17992 | 39553 ft | 497 kts | 234° |
| 2026-05-03 20:36 | 55.31503 | -94.27704 | 39551 ft | 497 kts | 234° |
| 2026-05-03 20:37 | 55.27361 | -94.37330 | 39553 ft | 497 kts | 234° |
| 2026-05-03 20:37 | 55.23184 | -94.47000 | 39550 ft | 497 kts | 234° |
| 2026-05-03 20:38 | 55.19004 | -94.56639 | 39551 ft | 497 kts | 234° |
| 2026-05-03 20:38 | 55.14822 | -94.66244 | 39544 ft | 496 kts | 234° |
| 2026-05-03 20:39 | 55.10637 | -94.75820 | 39545 ft | 495 kts | 234° |
| 2026-05-03 20:39 | 55.06447 | -94.85370 | 39537 ft | 495 kts | 234° |
| 2026-05-03 20:40 | 55.02253 | -94.94895 | 39535 ft | 495 kts | 234° |
| 2026-05-03 20:40 | 54.97497 | -95.03598 | 39532 ft | 498 kts | 223° |
| 2026-05-03 20:41 | 54.92237 | -95.11456 | 39529 ft | 499 kts | 221° |
| 2026-05-03 20:41 | 54.86894 | -95.19151 | 39529 ft | 499 kts | 221° |
| 2026-05-03 20:42 | 54.81553 | -95.26821 | 39523 ft | 498 kts | 221° |
| 2026-05-03 20:42 | 54.76220 | -95.34495 | 39522 ft | 498 kts | 221° |
| 2026-05-03 20:43 | 54.70890 | -95.42155 | 39510 ft | 498 kts | 221° |
| 2026-05-03 20:43 | 54.65564 | -95.49785 | 39516 ft | 497 kts | 221° |
| 2026-05-03 20:44 | 54.60236 | -95.57389 | 39509 ft | 497 kts | 221° |
| 2026-05-03 20:44 | 54.54909 | -95.64963 | 39514 ft | 496 kts | 221° |
| 2026-05-03 20:45 | 54.49582 | -95.72512 | 39509 ft | 496 kts | 221° |
| 2026-05-03 20:45 | 54.44284 | -95.79994 | 39516 ft | 496 kts | 221° |
| 2026-05-03 20:46 | 54.38949 | -95.87503 | 39511 ft | 496 kts | 221° |
| 2026-05-03 20:46 | 54.33574 | -95.95039 | 39516 ft | 495 kts | 221° |
| 2026-05-03 20:47 | 54.28249 | -96.02482 | 39514 ft | 494 kts | 221° |
| 2026-05-03 20:47 | 54.22923 | -96.09900 | 39514 ft | 494 kts | 221° |
| 2026-05-03 20:48 | 54.17588 | -96.17305 | 39511 ft | 494 kts | 221° |
| 2026-05-03 20:48 | 54.12252 | -96.24685 | 39506 ft | 494 kts | 221° |
| 2026-05-03 20:49 | 54.06909 | -96.32051 | 39494 ft | 494 kts | 221° |
| 2026-05-03 20:49 | 54.01568 | -96.39388 | 39492 ft | 493 kts | 221° |
| 2026-05-03 20:50 | 53.96256 | -96.46660 | 39489 ft | 493 kts | 221° |
| 2026-05-03 20:50 | 53.90911 | -96.53955 | 39477 ft | 493 kts | 221° |
| 2026-05-03 20:51 | 53.85557 | -96.61235 | 39474 ft | 493 kts | 221° |
| 2026-05-03 20:51 | 53.80202 | -96.68493 | 39470 ft | 493 kts | 221° |
| 2026-05-03 20:52 | 53.74844 | -96.75729 | 39457 ft | 493 kts | 221° |
| 2026-05-03 20:52 | 53.69482 | -96.82947 | 39454 ft | 492 kts | 221° |
| 2026-05-03 20:53 | 53.64126 | -96.90133 | 39444 ft | 492 kts | 221° |
| 2026-05-03 20:53 | 53.58771 | -96.97295 | 39444 ft | 492 kts | 221° |
| 2026-05-03 20:54 | 53.53410 | -97.04440 | 39437 ft | 492 kts | 221° |
| 2026-05-03 20:54 | 53.45361 | -97.15121 | 39430 ft | 491 kts | 221° |
| 2026-05-03 20:55 | 53.39998 | -97.22211 | 39407 ft | 491 kts | 221° |
| 2026-05-03 20:55 | 53.34628 | -97.29285 | 39420 ft | 491 kts | 221° |
| 2026-05-03 20:56 | 53.29255 | -97.36339 | 39427 ft | 491 kts | 221° |
| 2026-05-03 20:56 | 53.23876 | -97.43381 | 39424 ft | 491 kts | 221° |
| 2026-05-03 20:57 | 53.18492 | -97.50404 | 39418 ft | 491 kts | 221° |
| 2026-05-03 20:57 | 53.13107 | -97.57406 | 39413 ft | 491 kts | 221° |
| 2026-05-03 20:58 | 53.07714 | -97.64394 | 39420 ft | 491 kts | 221° |
| 2026-05-03 20:58 | 53.02320 | -97.71360 | 39420 ft | 491 kts | 221° |
| 2026-05-03 20:59 | 52.97839 | -97.77130 | 39404 ft | 490 kts | 221° |
| 2026-05-03 20:59 | 52.92455 | -97.84043 | 39409 ft | 489 kts | 221° |
| 2026-05-03 21:00 | 52.87987 | -97.89765 | 39411 ft | 489 kts | 221° |
| 2026-05-03 21:00 | 52.81694 | -97.97797 | 39397 ft | 489 kts | 221° |
| 2026-05-03 21:01 | 52.76306 | -98.04650 | 39400 ft | 489 kts | 221° |
| 2026-05-03 21:01 | 52.70914 | -98.11483 | 39386 ft | 488 kts | 221° |
| 2026-05-03 21:02 | 52.65533 | -98.18282 | 39390 ft | 487 kts | 221° |
| 2026-05-03 21:02 | 52.60153 | -98.25060 | 39385 ft | 487 kts | 221° |
| 2026-05-03 21:03 | 52.54772 | -98.31818 | 39381 ft | 487 kts | 221° |
| 2026-05-03 21:03 | 52.49384 | -98.38561 | 39381 ft | 487 kts | 221° |
| 2026-05-03 21:04 | 52.43992 | -98.45288 | 39367 ft | 487 kts | 221° |
| 2026-05-03 21:04 | 52.38602 | -98.51991 | 39369 ft | 486 kts | 221° |
| 2026-05-03 21:05 | 52.33211 | -98.58676 | 39368 ft | 486 kts | 221° |
| 2026-05-03 21:05 | 52.27816 | -98.65345 | 39367 ft | 486 kts | 221° |
| 2026-05-03 21:06 | 52.22416 | -98.71999 | 39368 ft | 486 kts | 221° |
| 2026-05-03 21:06 | 52.17010 | -98.78638 | 39363 ft | 486 kts | 221° |
| 2026-05-03 21:07 | 52.11606 | -98.85255 | 39368 ft | 486 kts | 221° |
| 2026-05-03 21:07 | 52.06197 | -98.91856 | 39364 ft | 486 kts | 221° |
| 2026-05-03 21:08 | 52.00782 | -98.98446 | 39372 ft | 487 kts | 221° |
| 2026-05-03 21:08 | 51.95361 | -99.05024 | 39373 ft | 487 kts | 221° |
| 2026-05-03 21:09 | 51.89939 | -99.11581 | 39376 ft | 486 kts | 221° |
| 2026-05-03 21:09 | 51.84518 | -99.18116 | 39377 ft | 486 kts | 221° |
| 2026-05-03 21:10 | 51.79101 | -99.24626 | 39399 ft | 485 kts | 221° |
| 2026-05-03 21:10 | 51.73677 | -99.31127 | 39386 ft | 486 kts | 221° |
| 2026-05-03 21:11 | 51.68249 | -99.37610 | 39412 ft | 486 kts | 221° |
| 2026-05-03 21:11 | 51.62853 | -99.44037 | 39403 ft | 485 kts | 221° |
| 2026-05-03 21:12 | 51.57390 | -99.50522 | 39412 ft | 485 kts | 221° |
| 2026-05-03 21:12 | 51.51961 | -99.56950 | 39412 ft | 485 kts | 221° |
| 2026-05-03 21:13 | 51.46567 | -99.63316 | 39412 ft | 485 kts | 221° |
| 2026-05-03 21:13 | 51.41122 | -99.69724 | 39429 ft | 486 kts | 221° |
| 2026-05-03 21:14 | 51.35670 | -99.76119 | 39437 ft | 486 kts | 221° |
| 2026-05-03 21:14 | 51.30217 | -99.82495 | 39462 ft | 486 kts | 221° |
| 2026-05-03 21:15 | 51.24767 | -99.88851 | 39469 ft | 486 kts | 221° |
| 2026-05-03 21:15 | 51.19305 | -99.95199 | 39476 ft | 486 kts | 221° |
| 2026-05-03 21:16 | 51.13841 | -100.01533 | 39446 ft | 485 kts | 221° |
| 2026-05-03 21:16 | 51.08524 | -100.08067 | 39474 ft | 481 kts | 226° |
| 2026-05-03 21:17 | 51.04327 | -100.13840 | 39475 ft | 479 kts | 227° |
| 2026-05-03 21:17 | 50.98477 | -100.22034 | 39490 ft | 479 kts | 227° |
| 2026-05-03 21:18 | 50.93477 | -100.29028 | 39487 ft | 479 kts | 227° |
| 2026-05-03 21:18 | 50.88466 | -100.35998 | 39499 ft | 479 kts | 227° |
| 2026-05-03 21:19 | 50.83451 | -100.42943 | 39512 ft | 479 kts | 227° |
| 2026-05-03 21:19 | 50.78439 | -100.49860 | 39516 ft | 478 kts | 227° |
| 2026-05-03 21:20 | 50.73432 | -100.56755 | 39526 ft | 478 kts | 227° |
| 2026-05-03 21:20 | 50.68452 | -100.63591 | 39526 ft | 478 kts | 227° |
| 2026-05-03 21:21 | 50.63437 | -100.70457 | 39540 ft | 478 kts | 227° |
| 2026-05-03 21:21 | 50.58413 | -100.77312 | 39524 ft | 478 kts | 227° |
| 2026-05-03 21:22 | 50.53393 | -100.84143 | 39553 ft | 477 kts | 227° |
| 2026-05-03 21:22 | 50.48372 | -100.90953 | 39554 ft | 477 kts | 227° |
| 2026-05-03 21:23 | 50.43348 | -100.97749 | 39567 ft | 477 kts | 227° |
| 2026-05-03 21:23 | 50.38322 | -101.04530 | 39567 ft | 477 kts | 227° |
| 2026-05-03 21:24 | 50.33289 | -101.11299 | 39564 ft | 477 kts | 227° |
| 2026-05-03 21:24 | 50.28271 | -101.18025 | 39575 ft | 474 kts | 227° |
| 2026-05-03 21:25 | 50.23269 | -101.24717 | 39585 ft | 473 kts | 227° |
| 2026-05-03 21:25 | 50.18266 | -101.31387 | 39586 ft | 473 kts | 227° |
| 2026-05-03 21:26 | 50.13260 | -101.38043 | 39594 ft | 473 kts | 227° |
| 2026-05-03 21:26 | 50.08248 | -101.44688 | 39589 ft | 473 kts | 227° |
| 2026-05-03 21:27 | 50.03239 | -101.51309 | 39602 ft | 472 kts | 227° |
| 2026-05-03 21:27 | 49.98241 | -101.57895 | 39611 ft | 470 kts | 227° |
| 2026-05-03 21:28 | 49.93249 | -101.64459 | 39599 ft | 470 kts | 227° |
| 2026-05-03 21:28 | 49.88252 | -101.71011 | 39622 ft | 470 kts | 227° |
| 2026-05-03 21:29 | 49.83253 | -101.77545 | 39610 ft | 470 kts | 227° |
| 2026-05-03 21:29 | 49.78248 | -101.84070 | 39600 ft | 471 kts | 227° |
| 2026-05-03 21:30 | 49.73265 | -101.90548 | 39627 ft | 470 kts | 227° |
| 2026-05-03 21:30 | 49.68253 | -101.97044 | 39631 ft | 470 kts | 226° |
| 2026-05-03 21:31 | 49.63234 | -102.03531 | 39635 ft | 470 kts | 226° |
| 2026-05-03 21:31 | 49.58211 | -102.10007 | 39637 ft | 470 kts | 226° |
| 2026-05-03 21:32 | 49.53188 | -102.16463 | 39637 ft | 471 kts | 226° |
| 2026-05-03 21:32 | 49.48154 | -102.22918 | 39643 ft | 471 kts | 226° |
| 2026-05-03 21:33 | 49.43123 | -102.29348 | 39641 ft | 470 kts | 226° |
| 2026-05-03 21:33 | 49.38089 | -102.35766 | 39646 ft | 470 kts | 226° |
| 2026-05-03 21:34 | 49.33052 | -102.42170 | 39647 ft | 470 kts | 226° |
| 2026-05-03 21:34 | 49.27977 | -102.48605 | 39651 ft | 471 kts | 226° |
| 2026-05-03 21:35 | 49.22925 | -102.54995 | 39647 ft | 472 kts | 226° |
| 2026-05-03 21:35 | 49.17861 | -102.61381 | 39645 ft | 471 kts | 226° |
| 2026-05-03 21:36 | 49.12795 | -102.67751 | 39643 ft | 472 kts | 226° |
| 2026-05-03 21:36 | 49.07727 | -102.74106 | 39644 ft | 472 kts | 226° |
| 2026-05-03 21:37 | 49.02654 | -102.80451 | 39630 ft | 472 kts | 225° |
| 2026-05-03 21:37 | 48.97606 | -102.86747 | 39651 ft | 473 kts | 225° |
| 2026-05-03 21:38 | 48.92514 | -102.93080 | 39664 ft | 473 kts | 225° |
| 2026-05-03 21:38 | 48.87415 | -102.99404 | 39676 ft | 473 kts | 225° |
| 2026-05-03 21:39 | 48.82313 | -103.05715 | 39680 ft | 473 kts | 225° |
| 2026-05-03 21:39 | 48.77205 | -103.12016 | 39672 ft | 473 kts | 225° |
| 2026-05-03 21:40 | 48.72093 | -103.18308 | 39677 ft | 474 kts | 225° |
| 2026-05-03 21:40 | 48.66967 | -103.24600 | 39702 ft | 474 kts | 225° |
| 2026-05-03 21:41 | 48.61833 | -103.30881 | 39710 ft | 474 kts | 225° |
| 2026-05-03 21:41 | 48.56699 | -103.37147 | 39716 ft | 474 kts | 225° |
| 2026-05-03 21:42 | 48.51563 | -103.43399 | 39712 ft | 475 kts | 225° |
| 2026-05-03 21:42 | 48.46415 | -103.49649 | 39719 ft | 476 kts | 225° |
| 2026-05-03 21:43 | 48.41256 | -103.55896 | 39744 ft | 476 kts | 225° |
| 2026-05-03 21:43 | 48.36091 | -103.62131 | 39748 ft | 476 kts | 224° |
| 2026-05-03 21:44 | 48.30923 | -103.68353 | 39747 ft | 476 kts | 224° |
| 2026-05-03 21:44 | 48.26625 | -103.73516 | 39748 ft | 476 kts | 224° |
| 2026-05-03 21:45 | 48.21502 | -103.79797 | 39749 ft | 475 kts | 226° |
| 2026-05-03 21:45 | 48.16494 | -103.86267 | 39749 ft | 475 kts | 226° |
| 2026-05-03 21:46 | 48.11483 | -103.92741 | 39753 ft | 476 kts | 226° |
| 2026-05-03 21:46 | 48.06450 | -103.99170 | 39758 ft | 476 kts | 226° |
| 2026-05-03 21:47 | 48.01401 | -104.05574 | 39766 ft | 476 kts | 226° |
| 2026-05-03 21:47 | 47.96348 | -104.11961 | 39774 ft | 476 kts | 226° |
| 2026-05-03 21:48 | 47.91287 | -104.18344 | 39768 ft | 477 kts | 226° |
| 2026-05-03 21:48 | 47.86217 | -104.24721 | 39772 ft | 477 kts | 226° |
| 2026-05-03 21:49 | 47.81145 | -104.31085 | 39767 ft | 477 kts | 225° |
| 2026-05-03 21:49 | 47.76073 | -104.37433 | 39769 ft | 477 kts | 225° |
| 2026-05-03 21:50 | 47.70989 | -104.43780 | 39749 ft | 478 kts | 225° |
| 2026-05-03 21:50 | 47.65889 | -104.50130 | 39771 ft | 479 kts | 225° |
| 2026-05-03 21:51 | 47.60776 | -104.56476 | 39781 ft | 479 kts | 225° |
| 2026-05-03 21:51 | 47.55661 | -104.62809 | 39785 ft | 479 kts | 225° |
| 2026-05-03 21:52 | 47.50537 | -104.69136 | 39799 ft | 480 kts | 225° |
| 2026-05-03 21:52 | 47.45409 | -104.75453 | 39786 ft | 481 kts | 225° |
| 2026-05-03 21:53 | 47.40255 | -104.81788 | 39811 ft | 483 kts | 225° |
| 2026-05-03 21:53 | 47.35089 | -104.88118 | 39806 ft | 483 kts | 225° |
| 2026-05-03 21:54 | 47.29920 | -104.94433 | 39819 ft | 483 kts | 225° |
| 2026-05-03 21:54 | 47.24746 | -105.00738 | 39793 ft | 483 kts | 225° |
| 2026-05-03 21:55 | 47.19567 | -105.07035 | 39808 ft | 484 kts | 224° |
| 2026-05-03 21:55 | 47.14361 | -105.13350 | 39816 ft | 485 kts | 224° |
| 2026-05-03 21:56 | 47.09151 | -105.19649 | 39817 ft | 486 kts | 224° |
| 2026-05-03 21:56 | 47.03932 | -105.25943 | 39814 ft | 486 kts | 224° |
| 2026-05-03 21:57 | 46.98710 | -105.32224 | 39819 ft | 486 kts | 224° |
| 2026-05-03 21:57 | 46.93477 | -105.38505 | 39818 ft | 487 kts | 224° |
| 2026-05-03 21:58 | 46.88225 | -105.44792 | 39820 ft | 488 kts | 224° |
| 2026-05-03 21:58 | 46.82965 | -105.51068 | 39823 ft | 488 kts | 224° |
| 2026-05-03 21:59 | 46.77702 | -105.57334 | 39823 ft | 488 kts | 224° |
| 2026-05-03 21:59 | 46.72438 | -105.63584 | 39815 ft | 488 kts | 224° |
| 2026-05-03 22:00 | 46.67156 | -105.69840 | 39839 ft | 491 kts | 223° |
| 2026-05-03 22:00 | 46.61848 | -105.76110 | 39847 ft | 491 kts | 223° |
| 2026-05-03 22:01 | 46.56543 | -105.82361 | 39831 ft | 491 kts | 223° |
| 2026-05-03 22:01 | 46.51264 | -105.88562 | 39832 ft | 491 kts | 223° |
| 2026-05-03 22:02 | 46.45912 | -105.94837 | 39830 ft | 491 kts | 223° |
| 2026-05-03 22:02 | 46.40586 | -106.01064 | 39835 ft | 492 kts | 223° |
| 2026-05-03 22:03 | 46.35286 | -106.07244 | 39838 ft | 492 kts | 223° |
| 2026-05-03 22:03 | 46.29951 | -106.13447 | 39838 ft | 492 kts | 223° |
| 2026-05-03 22:04 | 46.24613 | -106.19640 | 39832 ft | 492 kts | 223° |
| 2026-05-03 22:04 | 46.19268 | -106.25825 | 39843 ft | 492 kts | 222° |
| 2026-05-03 22:05 | 46.13922 | -106.31994 | 39845 ft | 492 kts | 222° |
| 2026-05-03 22:05 | 46.08576 | -106.38148 | 39846 ft | 492 kts | 222° |
| 2026-05-03 22:06 | 46.03228 | -106.44289 | 39851 ft | 492 kts | 222° |
| 2026-05-03 22:06 | 45.97872 | -106.50423 | 39851 ft | 492 kts | 222° |
| 2026-05-03 22:07 | 45.92528 | -106.56527 | 39854 ft | 490 kts | 222° |
| 2026-05-03 22:07 | 45.87193 | -106.62605 | 39860 ft | 489 kts | 222° |
| 2026-05-03 22:08 | 45.81860 | -106.68668 | 39858 ft | 489 kts | 222° |
| 2026-05-03 22:08 | 45.76524 | -106.74718 | 39860 ft | 489 kts | 221° |
| 2026-05-03 22:09 | 45.71195 | -106.80743 | 39861 ft | 487 kts | 221° |
| 2026-05-03 22:10 | 45.63253 | -106.89695 | 39869 ft | 484 kts | 221° |
| 2026-05-03 22:10 | 45.57967 | -106.95638 | 39879 ft | 483 kts | 221° |
| 2026-05-03 22:11 | 45.52678 | -107.01568 | 39864 ft | 483 kts | 221° |
| 2026-05-03 22:11 | 45.47398 | -107.07474 | 39877 ft | 482 kts | 221° |
| 2026-05-03 22:12 | 45.42115 | -107.13367 | 39876 ft | 482 kts | 221° |
| 2026-05-03 22:12 | 45.36832 | -107.19247 | 39875 ft | 482 kts | 221° |
| 2026-05-03 22:13 | 45.31544 | -107.25119 | 39873 ft | 482 kts | 221° |
| 2026-05-03 22:13 | 45.26254 | -107.30978 | 39880 ft | 482 kts | 220° |
| 2026-05-03 22:14 | 45.20969 | -107.36817 | 39871 ft | 481 kts | 221° |
| 2026-05-03 22:14 | 45.15692 | -107.42633 | 39881 ft | 480 kts | 220° |
| 2026-05-03 22:15 | 45.10416 | -107.48433 | 39891 ft | 480 kts | 220° |
| 2026-05-03 22:15 | 45.05135 | -107.54225 | 39890 ft | 480 kts | 220° |
| 2026-05-03 22:16 | 44.99855 | -107.60003 | 39912 ft | 480 kts | 220° |
| 2026-05-03 22:16 | 44.94579 | -107.65765 | 39920 ft | 479 kts | 220° |
| 2026-05-03 22:17 | 44.89298 | -107.71518 | 39916 ft | 479 kts | 220° |
| 2026-05-03 22:17 | 44.84017 | -107.77256 | 39901 ft | 479 kts | 220° |
| 2026-05-03 22:18 | 44.78730 | -107.82982 | 39912 ft | 479 kts | 220° |
| 2026-05-03 22:18 | 44.73444 | -107.88699 | 39893 ft | 479 kts | 220° |
| 2026-05-03 22:19 | 44.68159 | -107.94400 | 39899 ft | 479 kts | 220° |
| 2026-05-03 22:19 | 44.62873 | -108.00089 | 39904 ft | 478 kts | 220° |
| 2026-05-03 22:20 | 44.57589 | -108.05763 | 39913 ft | 478 kts | 220° |
| 2026-05-03 22:20 | 44.52304 | -108.11424 | 39915 ft | 478 kts | 220° |
| 2026-05-03 22:21 | 44.47017 | -108.17073 | 39907 ft | 478 kts | 220° |
| 2026-05-03 22:21 | 44.41734 | -108.22705 | 39897 ft | 477 kts | 220° |
| 2026-05-03 22:22 | 44.36450 | -108.28327 | 39889 ft | 478 kts | 220° |
| 2026-05-03 22:22 | 44.31157 | -108.33943 | 39883 ft | 478 kts | 220° |
| 2026-05-03 22:23 | 44.25863 | -108.39548 | 39889 ft | 478 kts | 220° |
| 2026-05-03 22:23 | 44.20569 | -108.45140 | 39899 ft | 477 kts | 220° |
| 2026-05-03 22:24 | 44.15272 | -108.50722 | 39896 ft | 477 kts | 220° |
| 2026-05-03 22:24 | 44.09974 | -108.56294 | 39901 ft | 477 kts | 220° |
| 2026-05-03 22:25 | 44.04671 | -108.61857 | 39901 ft | 477 kts | 220° |
| 2026-05-03 22:25 | 43.99368 | -108.67406 | 39906 ft | 477 kts | 220° |
| 2026-05-03 22:26 | 43.94960 | -108.72009 | 39904 ft | 477 kts | 220° |
| 2026-05-03 22:26 | 43.89658 | -108.77536 | 39910 ft | 477 kts | 219° |
| 2026-05-03 22:27 | 43.84354 | -108.83051 | 39917 ft | 477 kts | 219° |
| 2026-05-03 22:27 | 43.79050 | -108.88554 | 39907 ft | 477 kts | 219° |
| 2026-05-03 22:28 | 43.73746 | -108.94044 | 39916 ft | 476 kts | 219° |
| 2026-05-03 22:28 | 43.68446 | -108.99517 | 39902 ft | 475 kts | 219° |
| 2026-05-03 22:29 | 43.63153 | -109.04970 | 39920 ft | 475 kts | 219° |
| 2026-05-03 22:29 | 43.57858 | -109.10415 | 39900 ft | 475 kts | 219° |
| 2026-05-03 22:30 | 43.52566 | -109.15844 | 39917 ft | 473 kts | 219° |
| 2026-05-03 22:30 | 43.47285 | -109.21248 | 39913 ft | 473 kts | 219° |
| 2026-05-03 22:31 | 43.41997 | -109.26650 | 39897 ft | 473 kts | 219° |
| 2026-05-03 22:31 | 43.36705 | -109.32042 | 39922 ft | 474 kts | 219° |
| 2026-05-03 22:32 | 43.31409 | -109.37426 | 39912 ft | 473 kts | 219° |
| 2026-05-03 22:32 | 43.26137 | -109.42770 | 39955 ft | 470 kts | 219° |
| 2026-05-03 22:33 | 43.20873 | -109.48099 | 39950 ft | 470 kts | 219° |
| 2026-05-03 22:33 | 43.15620 | -109.53408 | 39974 ft | 469 kts | 219° |
| 2026-05-03 22:34 | 43.10373 | -109.58698 | 39971 ft | 468 kts | 219° |
| 2026-05-03 22:34 | 43.05122 | -109.63979 | 39969 ft | 469 kts | 219° |
| 2026-05-03 22:35 | 42.99868 | -109.69250 | 39968 ft | 468 kts | 219° |
| 2026-05-03 22:35 | 42.94615 | -109.74509 | 39955 ft | 468 kts | 219° |
| 2026-05-03 22:36 | 42.89361 | -109.79759 | 39954 ft | 468 kts | 219° |
| 2026-05-03 22:36 | 42.86731 | -109.82382 | 40067 ft | 468 kts | 219° |
| 2026-05-03 22:36 | 42.84102 | -109.85002 | 40069 ft | 468 kts | 219° |
| 2026-05-03 22:37 | 42.78857 | -109.90219 | 40070 ft | 467 kts | 219° |
| 2026-05-03 22:37 | 42.73609 | -109.95429 | 40056 ft | 467 kts | 219° |
| 2026-05-03 22:38 | 42.68361 | -110.00627 | 40062 ft | 467 kts | 219° |
| 2026-05-03 22:38 | 42.63110 | -110.05819 | 40074 ft | 467 kts | 219° |
| 2026-05-03 22:39 | 42.57809 | -110.10895 | 40081 ft | 467 kts | 214° |
| 2026-05-03 22:39 | 42.52211 | -110.15390 | 40079 ft | 468 kts | 213° |
| 2026-05-03 22:40 | 42.46550 | -110.19759 | 40054 ft | 468 kts | 212° |
| 2026-05-03 22:40 | 42.40878 | -110.24106 | 40018 ft | 468 kts | 212° |
| 2026-05-03 22:41 | 42.35215 | -110.28450 | 39986 ft | 467 kts | 213° |
| 2026-05-03 22:41 | 42.29560 | -110.32783 | 39941 ft | 467 kts | 212° |
| 2026-05-03 22:42 | 42.23909 | -110.37113 | 39938 ft | 467 kts | 213° |
| 2026-05-03 22:42 | 42.18258 | -110.41436 | 39930 ft | 467 kts | 212° |
| 2026-05-03 22:43 | 42.12610 | -110.45745 | 39953 ft | 466 kts | 213° |
| 2026-05-03 22:43 | 42.06968 | -110.50040 | 39996 ft | 465 kts | 212° |
| 2026-05-03 22:44 | 42.01334 | -110.54321 | 40024 ft | 465 kts | 212° |
| 2026-05-03 22:44 | 41.95694 | -110.58596 | 40058 ft | 465 kts | 212° |
| 2026-05-03 22:45 | 41.90063 | -110.62856 | 39920 ft | 464 kts | 212° |
| 2026-05-03 22:45 | 41.84437 | -110.67103 | 39916 ft | 464 kts | 212° |
| 2026-05-03 22:46 | 41.78812 | -110.71341 | 39916 ft | 464 kts | 212° |
| 2026-05-03 22:46 | 41.73227 | -110.75541 | 39917 ft | 464 kts | 212° |
| 2026-05-03 22:47 | 41.67597 | -110.79766 | 39919 ft | 464 kts | 212° |
| 2026-05-03 22:47 | 41.61977 | -110.83975 | 39919 ft | 463 kts | 212° |
| 2026-05-03 22:48 | 41.56351 | -110.88179 | 39921 ft | 463 kts | 212° |
| 2026-05-03 22:48 | 41.50730 | -110.92371 | 39922 ft | 463 kts | 212° |
| 2026-05-03 22:49 | 41.45106 | -110.96557 | 40029 ft | 463 kts | 212° |
| 2026-05-03 22:49 | 41.39484 | -111.00732 | 40072 ft | 462 kts | 212° |
| 2026-05-03 22:50 | 41.33866 | -111.04899 | 40091 ft | 462 kts | 212° |
| 2026-05-03 22:50 | 41.28248 | -111.09057 | 40092 ft | 462 kts | 212° |
| 2026-05-03 22:51 | 41.22623 | -111.13211 | 40087 ft | 462 kts | 212° |
| 2026-05-03 22:51 | 41.17002 | -111.17354 | 40054 ft | 462 kts | 212° |
| 2026-05-03 22:52 | 41.11374 | -111.21490 | 40016 ft | 462 kts | 212° |
| 2026-05-03 22:52 | 41.05745 | -111.25620 | 39979 ft | 462 kts | 212° |
| 2026-05-03 22:53 | 41.00116 | -111.29746 | 39916 ft | 462 kts | 212° |
| 2026-05-03 22:53 | 40.94495 | -111.33857 | 39919 ft | 461 kts | 212° |
| 2026-05-03 22:54 | 40.88842 | -111.37985 | 39914 ft | 461 kts | 212° |
| 2026-05-03 22:54 | 40.83258 | -111.42050 | 39901 ft | 461 kts | 212° |
| 2026-05-03 22:55 | 40.77639 | -111.46134 | 39926 ft | 461 kts | 212° |
| 2026-05-03 22:55 | 40.72016 | -111.50212 | 39948 ft | 461 kts | 212° |
| 2026-05-03 22:56 | 40.66359 | -111.54309 | 39952 ft | 461 kts | 212° |
| 2026-05-03 22:56 | 40.60734 | -111.58376 | 39907 ft | 461 kts | 212° |
| 2026-05-03 22:57 | 40.55111 | -111.62437 | 39909 ft | 461 kts | 212° |
| 2026-05-03 22:57 | 40.49494 | -111.66488 | 39912 ft | 460 kts | 212° |
| 2026-05-03 22:58 | 40.43878 | -111.70520 | 39934 ft | 460 kts | 212° |
| 2026-05-03 22:58 | 40.38303 | -111.74516 | 39948 ft | 460 kts | 212° |
| 2026-05-03 22:59 | 40.32689 | -111.78529 | 39963 ft | 459 kts | 212° |
| 2026-05-03 22:59 | 40.27072 | -111.82539 | 39974 ft | 462 kts | 212° |
| 2026-05-03 23:00 | 40.21329 | -111.86637 | 39962 ft | 472 kts | 211° |
| 2026-05-03 23:00 | 40.15511 | -111.90779 | 39949 ft | 479 kts | 211° |
| 2026-05-03 23:01 | 40.09656 | -111.94934 | 39917 ft | 478 kts | 211° |
| 2026-05-03 23:01 | 40.03807 | -111.99077 | 39866 ft | 478 kts | 211° |
| 2026-05-03 23:02 | 39.97962 | -112.03211 | 39876 ft | 478 kts | 211° |
| 2026-05-03 23:02 | 39.92116 | -112.07338 | 39873 ft | 478 kts | 211° |
| 2026-05-03 23:03 | 39.86271 | -112.11457 | 39877 ft | 478 kts | 211° |
| 2026-05-03 23:03 | 39.80465 | -112.15542 | 39865 ft | 477 kts | 211° |
| 2026-05-03 23:04 | 39.74629 | -112.19638 | 39873 ft | 477 kts | 211° |
| 2026-05-03 23:04 | 39.68798 | -112.23724 | 39873 ft | 476 kts | 211° |
| 2026-05-03 23:05 | 39.62967 | -112.27801 | 39871 ft | 476 kts | 211° |
| 2026-05-03 23:05 | 39.57137 | -112.31869 | 39870 ft | 476 kts | 211° |
| 2026-05-03 23:06 | 39.51306 | -112.35931 | 39862 ft | 476 kts | 211° |
| 2026-05-03 23:06 | 39.45639 | -112.39870 | 39865 ft | 476 kts | 211° |
| 2026-05-03 23:07 | 39.39809 | -112.43916 | 39865 ft | 476 kts | 211° |
| 2026-05-03 23:07 | 39.33980 | -112.47952 | 39857 ft | 475 kts | 211° |
| 2026-05-03 23:08 | 39.29033 | -112.51151 | 39858 ft | 476 kts | 207° |
| 2026-05-03 23:08 | 39.21969 | -112.55095 | 39859 ft | 476 kts | 206° |
| 2026-05-03 23:09 | 39.17464 | -112.57540 | 39861 ft | 476 kts | 206° |
| 2026-05-03 23:09 | 39.11358 | -112.60843 | 39845 ft | 476 kts | 206° |
| 2026-05-03 23:10 | 39.05213 | -112.64173 | 39839 ft | 476 kts | 206° |
| 2026-05-03 23:10 | 38.99114 | -112.67478 | 39839 ft | 475 kts | 206° |
| 2026-05-03 23:11 | 38.93019 | -112.70777 | 39840 ft | 475 kts | 206° |
| 2026-05-03 23:11 | 38.86929 | -112.74067 | 39831 ft | 475 kts | 206° |
| 2026-05-03 23:11 | 38.83880 | -112.75711 | 39669 ft | 474 kts | 207° |
| 2026-05-03 23:12 | 38.80843 | -112.77345 | 39145 ft | 472 kts | 207° |
| 2026-05-03 23:12 | 38.77813 | -112.78977 | 38479 ft | 473 kts | 207° |
| 2026-05-03 23:12 | 38.74780 | -112.80610 | 37676 ft | 473 kts | 206° |
| 2026-05-03 23:12 | 38.71737 | -112.82247 | 36812 ft | 475 kts | 206° |
| 2026-05-03 23:13 | 38.68682 | -112.83889 | 35968 ft | 477 kts | 206° |
| 2026-05-03 23:13 | 38.65613 | -112.85535 | 35245 ft | 478 kts | 206° |
| 2026-05-03 23:13 | 38.62548 | -112.87177 | 34560 ft | 478 kts | 206° |
| 2026-05-03 23:13 | 38.59489 | -112.88814 | 33933 ft | 476 kts | 206° |
| 2026-05-03 23:14 | 38.56440 | -112.90443 | 33321 ft | 473 kts | 205° |
| 2026-05-03 23:14 | 38.53415 | -112.92058 | 32753 ft | 469 kts | 205° |
| 2026-05-03 23:14 | 38.50414 | -112.93660 | 32207 ft | 465 kts | 205° |
| 2026-05-03 23:14 | 38.47459 | -112.95235 | 31973 ft | 454 kts | 205° |
| 2026-05-03 23:15 | 38.44591 | -112.96759 | 31942 ft | 439 kts | 205° |
| 2026-05-03 23:15 | 38.41813 | -112.98234 | 31944 ft | 426 kts | 205° |
| 2026-05-03 23:15 | 38.39088 | -112.99682 | 31943 ft | 424 kts | 205° |
| 2026-05-03 23:16 | 38.33637 | -113.02541 | 31936 ft | 424 kts | 203° |
| 2026-05-03 23:16 | 38.28099 | -113.05133 | 31911 ft | 424 kts | 203° |
| 2026-05-03 23:17 | 38.22560 | -113.07734 | 31894 ft | 424 kts | 203° |
| 2026-05-03 23:17 | 38.17039 | -113.10342 | 31862 ft | 423 kts | 203° |
| 2026-05-03 23:18 | 38.11531 | -113.12945 | 31831 ft | 421 kts | 203° |
| 2026-05-03 23:18 | 38.06114 | -113.15503 | 31815 ft | 420 kts | 203° |
| 2026-05-03 23:19 | 38.00646 | -113.18083 | 31830 ft | 419 kts | 203° |
| 2026-05-03 23:19 | 37.95183 | -113.20655 | 31878 ft | 419 kts | 203° |
| 2026-05-03 23:20 | 37.89722 | -113.23224 | 31915 ft | 418 kts | 203° |
| 2026-05-03 23:20 | 37.84270 | -113.25782 | 31921 ft | 418 kts | 204° |
| 2026-05-03 23:21 | 37.78821 | -113.28337 | 31930 ft | 418 kts | 204° |
| 2026-05-03 23:21 | 37.73377 | -113.30884 | 31939 ft | 417 kts | 204° |
| 2026-05-03 23:22 | 37.65218 | -113.34695 | 31926 ft | 416 kts | 204° |
| 2026-05-03 23:22 | 37.59787 | -113.37224 | 31896 ft | 416 kts | 204° |
| 2026-05-03 23:23 | 37.54362 | -113.39749 | 31875 ft | 415 kts | 204° |
| 2026-05-03 23:23 | 37.48947 | -113.42266 | 31854 ft | 415 kts | 204° |
| 2026-05-03 23:24 | 37.43542 | -113.44777 | 31827 ft | 413 kts | 204° |
| 2026-05-03 23:24 | 37.38167 | -113.47264 | 31824 ft | 411 kts | 205° |
| 2026-05-03 23:25 | 37.32820 | -113.49736 | 31807 ft | 408 kts | 205° |
| 2026-05-03 23:25 | 37.27493 | -113.52200 | 31810 ft | 408 kts | 205° |
| 2026-05-03 23:26 | 37.22174 | -113.54769 | 31642 ft | 413 kts | 209° |
| 2026-05-03 23:26 | 37.19588 | -113.56320 | 31431 ft | 408 kts | 210° |
| 2026-05-03 23:26 | 37.17064 | -113.57852 | 31261 ft | 398 kts | 210° |
| 2026-05-03 23:27 | 37.14620 | -113.59318 | 30964 ft | 391 kts | 210° |
| 2026-05-03 23:27 | 37.12303 | -113.60695 | 30560 ft | 388 kts | 210° |
| 2026-05-03 23:27 | 37.09902 | -113.62114 | 30156 ft | 385 kts | 209° |
| 2026-05-03 23:27 | 37.07485 | -113.63533 | 29730 ft | 382 kts | 209° |
| 2026-05-03 23:28 | 37.05091 | -113.64934 | 29288 ft | 378 kts | 209° |
| 2026-05-03 23:28 | 37.02722 | -113.66317 | 28874 ft | 374 kts | 208° |
| 2026-05-03 23:28 | 37.00377 | -113.67684 | 28467 ft | 370 kts | 208° |
| 2026-05-03 23:28 | 36.98048 | -113.69043 | 28059 ft | 370 kts | 208° |
| 2026-05-03 23:29 | 36.95721 | -113.70398 | 27653 ft | 368 kts | 208° |
| 2026-05-03 23:29 | 36.93402 | -113.71757 | 27224 ft | 367 kts | 208° |
| 2026-05-03 23:29 | 36.91095 | -113.73106 | 26819 ft | 365 kts | 208° |
| 2026-05-03 23:29 | 36.88798 | -113.74444 | 26396 ft | 363 kts | 208° |
| 2026-05-03 23:30 | 36.86515 | -113.75772 | 25986 ft | 361 kts | 208° |
| 2026-05-03 23:30 | 36.84249 | -113.77092 | 25572 ft | 358 kts | 208° |
| 2026-05-03 23:30 | 36.81998 | -113.78405 | 25153 ft | 357 kts | 208° |
| 2026-05-03 23:30 | 36.79753 | -113.79713 | 24739 ft | 355 kts | 208° |
| 2026-05-03 23:31 | 36.77516 | -113.81015 | 24327 ft | 355 kts | 208° |
| 2026-05-03 23:31 | 36.75285 | -113.82313 | 23911 ft | 353 kts | 207° |
| 2026-05-03 23:31 | 36.73058 | -113.83607 | 23498 ft | 353 kts | 207° |
| 2026-05-03 23:31 | 36.70839 | -113.84895 | 23052 ft | 351 kts | 207° |
| 2026-05-03 23:32 | 36.68629 | -113.86177 | 22623 ft | 349 kts | 207° |
| 2026-05-03 23:32 | 36.66438 | -113.87447 | 22225 ft | 346 kts | 207° |
| 2026-05-03 23:32 | 36.64265 | -113.88707 | 21785 ft | 343 kts | 207° |
| 2026-05-03 23:32 | 36.62109 | -113.89957 | 21373 ft | 340 kts | 207° |
| 2026-05-03 23:33 | 36.60001 | -113.91261 | 20967 ft | 336 kts | 212° |
| 2026-05-03 23:33 | 36.58184 | -113.93041 | 20580 ft | 331 kts | 227° |
| 2026-05-03 23:33 | 36.56716 | -113.95232 | 20200 ft | 328 kts | 232° |
| 2026-05-03 23:33 | 36.55327 | -113.97494 | 19954 ft | 330 kts | 232° |
| 2026-05-03 23:34 | 36.53937 | -113.99761 | 19589 ft | 329 kts | 232° |
| 2026-05-03 23:34 | 36.52551 | -114.02011 | 19192 ft | 327 kts | 232° |
| 2026-05-03 23:34 | 36.51167 | -114.04250 | 18793 ft | 326 kts | 231° |
| 2026-05-03 23:34 | 36.49789 | -114.06475 | 18406 ft | 324 kts | 231° |
| 2026-05-03 23:35 | 36.48415 | -114.08688 | 18019 ft | 323 kts | 230° |
| 2026-05-03 23:35 | 36.47040 | -114.10899 | 17580 ft | 322 kts | 231° |
| 2026-05-03 23:35 | 36.45673 | -114.13096 | 17176 ft | 321 kts | 231° |
| 2026-05-03 23:35 | 36.44312 | -114.15282 | 16780 ft | 319 kts | 230° |
| 2026-05-03 23:36 | 36.42963 | -114.17447 | 16407 ft | 317 kts | 230° |
| 2026-05-03 23:36 | 36.41612 | -114.19616 | 16019 ft | 316 kts | 230° |
| 2026-05-03 23:36 | 36.40270 | -114.21767 | 15626 ft | 315 kts | 230° |
| 2026-05-03 23:36 | 36.38931 | -114.23912 | 15239 ft | 314 kts | 230° |
| 2026-05-03 23:37 | 36.37585 | -114.26037 | 14837 ft | 312 kts | 229° |
| 2026-05-03 23:37 | 36.36236 | -114.28144 | 14446 ft | 311 kts | 229° |
| 2026-05-03 23:37 | 36.34892 | -114.30245 | 14054 ft | 310 kts | 229° |
| 2026-05-03 23:37 | 36.33559 | -114.32333 | 13667 ft | 309 kts | 228° |
| 2026-05-03 23:38 | 36.32226 | -114.34419 | 13258 ft | 308 kts | 229° |
| 2026-05-03 23:38 | 36.30900 | -114.36493 | 12863 ft | 306 kts | 228° |
| 2026-05-03 23:38 | 36.29583 | -114.38552 | 12469 ft | 304 kts | 229° |
| 2026-05-03 23:38 | 36.28275 | -114.40595 | 12093 ft | 302 kts | 230° |
| 2026-05-03 23:39 | 36.26975 | -114.42628 | 11713 ft | 300 kts | 230° |
| 2026-05-03 23:39 | 36.25682 | -114.44641 | 11334 ft | 298 kts | 230° |
| 2026-05-03 23:39 | 36.24398 | -114.46646 | 10956 ft | 296 kts | 229° |
| 2026-05-03 23:39 | 36.23110 | -114.48623 | 10574 ft | 294 kts | 229° |
| 2026-05-03 23:40 | 36.21829 | -114.50582 | 10206 ft | 292 kts | 229° |
| 2026-05-03 23:40 | 36.20567 | -114.52515 | 9990 ft | 283 kts | 229° |
| 2026-05-03 23:40 | 36.19358 | -114.54368 | 9872 ft | 271 kts | 229° |
| 2026-05-03 23:40 | 36.18178 | -114.56181 | 9717 ft | 275 kts | 229° |
| 2026-05-03 23:41 | 36.16970 | -114.58029 | 9470 ft | 275 kts | 228° |
| 2026-05-03 23:41 | 36.15771 | -114.59864 | 9112 ft | 275 kts | 228° |
| 2026-05-03 23:41 | 36.14569 | -114.61704 | 8781 ft | 276 kts | 229° |
| 2026-05-03 23:41 | 36.13367 | -114.63537 | 8647 ft | 273 kts | 228° |
| 2026-05-03 23:42 | 36.12173 | -114.65355 | 8510 ft | 273 kts | 228° |
| 2026-05-03 23:42 | 36.10976 | -114.67173 | 8371 ft | 273 kts | 229° |
| 2026-05-03 23:42 | 36.09784 | -114.68991 | 8219 ft | 271 kts | 228° |
| 2026-05-03 23:42 | 36.08601 | -114.70801 | 8028 ft | 270 kts | 228° |
| 2026-05-03 23:43 | 36.07637 | -114.72760 | 7870 ft | 270 kts | 245° |
| 2026-05-03 23:43 | 36.07217 | -114.75063 | 7738 ft | 278 kts | 259° |
| 2026-05-03 23:43 | 36.07091 | -114.77439 | 7447 ft | 275 kts | 264° |
| 2026-05-03 23:43 | 36.07118 | -114.79756 | 7279 ft | 265 kts | 267° |
| 2026-05-03 23:44 | 36.07195 | -114.82004 | 7056 ft | 259 kts | 266° |
| 2026-05-03 23:44 | 36.07268 | -114.84196 | 6809 ft | 253 kts | 268° |
| 2026-05-03 23:44 | 36.07327 | -114.86347 | 6529 ft | 248 kts | 266° |
| 2026-05-03 23:44 | 36.07379 | -114.88458 | 6245 ft | 244 kts | 265° |
| 2026-05-03 23:45 | 36.07381 | -114.90543 | 5931 ft | 241 kts | 263° |
| 2026-05-03 23:45 | 36.07374 | -114.92587 | 5578 ft | 235 kts | 265° |
| 2026-05-03 23:45 | 36.07373 | -114.94587 | 5222 ft | 232 kts | 265° |
| 2026-05-03 23:45 | 36.07376 | -114.96565 | 4857 ft | 226 kts | 264° |
| 2026-05-03 23:46 | 36.07378 | -114.98460 | 4494 ft | 214 kts | 264° |
| 2026-05-03 23:46 | 36.07377 | -115.00240 | 4123 ft | 201 kts | 264° |
| 2026-05-03 23:46 | 36.07375 | -115.01930 | 3822 ft | 193 kts | 265° |
| 2026-05-03 23:46 | 36.07375 | -115.03548 | 3532 ft | 182 kts | 261° |
| 2026-05-03 23:47 | 36.07373 | -115.05052 | 3311 ft | 168 kts | 260° |
| 2026-05-03 23:47 | 36.07371 | -115.06446 | 3109 ft | 155 kts | 261° |
| 2026-05-03 23:47 | 36.07370 | -115.07734 | 2909 ft | 148 kts | 260° |
| 2026-05-03 23:47 | 36.07367 | -115.09025 | 2702 ft | 152 kts | 261° |
| 2026-05-03 23:48 | 36.07377 | -115.10313 | 2476 ft | 148 kts | 260° |
| 2026-05-03 23:48 | 36.07390 | -115.11596 | 2258 ft | 148 kts | 259° |
| 2026-05-03 23:48 | 36.07373 | -115.12877 | 2097 ft | 150 kts | 263° |
| 2026-05-03 23:48 | 36.07368 | -115.14034 | 2089 ft | 98 kts | 270° |
| 2026-05-03 23:49 | 36.07367 | -115.14465 | 2097 ft | 26 kts | 270° |
| 2026-05-03 23:49 | 36.07368 | -115.14682 | 2098 ft | 24 kts | 273° |
| 2026-05-03 23:49 | 36.07400 | -115.14875 | 2102 ft | 21 kts | 290° |
| 2026-05-03 23:49 | 36.07463 | -115.15029 | 2105 ft | 17 kts | 299° |
| 2026-05-03 23:50 | 36.07503 | -115.15097 | 2107 ft | 4 kts | 318° |
| 2026-05-03 23:50 | 36.07515 | -115.15110 | 2107 ft | 3 kts | 319° |
| 2026-05-03 23:50 | 36.07523 | -115.15117 | 2108 ft | 0 kts | 322° |
| 2026-05-03 23:52 | 36.07527 | -115.15121 | 2108 ft | 3 kts | 323° |
| 2026-05-03 23:52 | 36.07558 | -115.15145 | 2111 ft | 5 kts | 332° |
| 2026-05-03 23:52 | 36.07583 | -115.15161 | 2113 ft | 5 kts | 333° |
| 2026-05-03 23:52 | 36.07630 | -115.15189 | 2118 ft | 10 kts | 334° |
| 2026-05-03 23:53 | 36.07706 | -115.15234 | 2114 ft | 15 kts | 335° |
| 2026-05-03 23:53 | 36.07798 | -115.15288 | 2108 ft | 10 kts | 334° |
| 2026-05-03 23:53 | 36.07858 | -115.15302 | 2106 ft | 8 kts | 27° |
| 2026-05-03 23:53 | 36.07876 | -115.15230 | 2105 ft | 11 kts | 88° |
| 2026-05-03 23:54 | 36.07877 | -115.15124 | 2104 ft | 14 kts | 91° |
| 2026-05-03 23:54 | 36.07870 | -115.14989 | 2104 ft | 17 kts | 94° |
| 2026-05-03 23:54 | 36.07859 | -115.14833 | 2103 ft | 20 kts | 95° |
| 2026-05-03 23:54 | 36.07848 | -115.14654 | 2102 ft | 22 kts | 94° |
| 2026-05-03 23:55 | 36.07835 | -115.14462 | 2102 ft | 21 kts | 95° |
| 2026-05-03 23:55 | 36.07827 | -115.14292 | 2101 ft | 20 kts | 91° |
| 2026-05-03 23:55 | 36.07826 | -115.14109 | 2100 ft | 23 kts | 90° |
| 2026-05-03 23:55 | 36.07827 | -115.13944 | 2099 ft | 20 kts | 90° |
| 2026-05-03 23:56 | 36.07827 | -115.13771 | 2098 ft | 18 kts | 90° |
| 2026-05-03 23:56 | 36.07828 | -115.13619 | 2098 ft | 19 kts | 90° |
| 2026-05-03 23:56 | 36.07828 | -115.13471 | 2097 ft | 13 kts | 90° |
| 2026-05-03 23:56 | 36.07833 | -115.13394 | 2096 ft | 7 kts | 69° |
| 2026-05-03 23:57 | 36.07876 | -115.13375 | 2095 ft | 8 kts | 0° |
| 2026-05-03 23:57 | 36.07943 | -115.13374 | 2095 ft | 11 kts | 0° |
| 2026-05-03 23:57 | 36.08031 | -115.13374 | 2095 ft | 14 kts | 359° |
| 2026-05-03 23:57 | 36.08137 | -115.13375 | 2095 ft | 17 kts | 360° |
| 2026-05-03 23:58 | 36.08253 | -115.13374 | 2096 ft | 15 kts | 360° |
| 2026-05-03 23:58 | 36.08344 | -115.13375 | 2098 ft | 11 kts | 0° |
| 2026-05-03 23:58 | 36.08409 | -115.13393 | 2099 ft | 9 kts | 325° |
| 2026-05-03 23:58 | 36.08450 | -115.13434 | 2098 ft | 7 kts | 333° |
| 2026-05-03 23:59 | 36.08493 | -115.13444 | 2098 ft | 4 kts | 1° |
| 2026-05-03 23:59 | 36.08516 | -115.13443 | 2098 ft | 2 kts | 1° |
| 2026-05-03 23:59 | 36.08529 | -115.13443 | 2098 ft | 1 kts | 0° |
| 2026-05-03 23:59 | 36.08532 | -115.13443 | 2098 ft | 0 kts | 0° |
| 2026-05-04 00:00 | 36.08533 | -115.13443 | 2098 ft | 0 kts | 0° |